Time;durP1;ratioP1;P1;durP2;ratioP2;P2;SDS_P1;SDS_P2;PMS_P1;PMS_P2;Temp;Humidity;BMP_temperature;BMP_pressure;BME280_temperature;BME280_humidity;BME280_pressure;Samples;Min_cycle;Max_cycle;Signal;HPM_P1;HPM_P2
2022/09/11 00:00:59;;;;;;;;;;;;;;;15.23;86.75;101677.19;4945275;28;20006;-67
2022/09/11 00:03:24;;;;;;;;;;;;;;;15.21;86.48;101678.91;4959555;28;19989;-67
2022/09/11 00:05:50;;;;;;;;;;;;;;;15.18;86.16;101681.47;4952965;28;20014;-67
2022/09/11 00:08:16;;;;;;;;;;;;;;;15.15;86.24;101686.66;4960205;28;20373;-67
2022/09/11 00:10:42;;;;;;;;;;;;;;;15.13;86.37;101676.13;4954458;28;19918;-67
2022/09/11 00:13:08;;;;;;;;;;;;;;;15.10;86.25;101676.97;4957328;28;19973;-67
2022/09/11 00:15:38;;;;;;;;;;;;;;;15.10;86.23;101682.22;4959378;28;19922;-67
2022/09/11 00:18:03;;;;;;;;;;;;;;;15.08;86.27;101678.69;4963643;28;19936;-67
2022/09/11 00:20:29;;;;;;;;;;;;;;;15.07;86.51;101679.53;4954594;28;19994;-67
2022/09/11 00:22:55;;;;;;;;;;;;;;;15.07;86.53;101679.53;4964188;28;19906;-67
2022/09/11 00:25:20;;;;;;;;;;;;;;;15.05;86.12;101676.00;4954203;28;19969;-67
2022/09/11 00:27:45;;;;;;;;;;;;;;;15.02;86.62;101678.56;4952331;28;19961;-67
2022/09/11 00:30:11;;;;;;;;;;;;;;;15.03;86.46;101688.19;4950263;29;19907;-67
2022/09/11 00:32:36;;;;;;;;;;;;;;;15.01;86.47;101689.91;4955282;28;19965;-67
2022/09/11 00:35:01;;;;;;;;;;;;;;;15.00;86.38;101682.91;4954644;28;19918;-67
2022/09/11 00:37:26;;;;;;;;;;;;;;;14.99;86.38;101686.41;4951451;29;19918;-67
2022/09/11 00:39:53;;;;;;;;;;;;;;;14.97;86.18;101682.84;4951339;28;20005;-67
2022/09/11 00:42:18;;;;;;;;;;;;;;;14.95;86.60;101690.69;4953886;28;19961;-67
2022/09/11 00:44:44;;;;;;;;;;;;;;;14.94;86.52;101688.91;4957473;28;19949;-67
2022/09/11 00:47:14;;;;;;;;;;;;;;;14.92;86.39;101690.63;4952216;28;19918;-67
2022/09/11 00:49:47;;;;;;;;;;;;;;;14.90;86.37;101692.34;4960847;28;19957;-67
2022/09/11 00:52:28;;;;;;;;;;;;;;;14.91;86.44;101703.72;4959770;28;20390;-67
2022/09/11 00:54:58;;;;;;;;;;;;;;;14.89;86.43;101705.44;4948342;28;20555;-67
2022/09/11 00:57:26;;;;;;;;;;;;;;;14.88;86.30;101708.91;4959022;28;19914;-67
2022/09/11 00:59:54;;;;;;;;;;;;;;;14.86;86.15;101715.84;4955328;28;19922;-67
2022/09/11 01:02:21;;;;;;;;;;;;;;;14.84;86.11;101705.34;4952902;28;19925;-67
2022/09/11 01:04:47;;;;;;;;;;;;;;;14.83;86.24;101700.06;4948221;28;20610;-67
2022/09/11 01:07:14;;;;;;;;;;;;;;;14.81;86.52;101707.91;4932533;28;19918;-67
2022/09/11 01:09:39;;;;;;;;;;;;;;;14.77;86.54;101712.22;4952423;29;20158;-67
2022/09/11 01:12:23;;;;;;;;;;;;;;;14.76;86.71;101715.69;4950191;28;19992;-67
2022/09/11 01:15:12;;;;;;;;;;;;;;;14.76;86.80;101713.06;4951936;28;19914;-67
2022/09/11 01:18:01;;;;;;;;;;;;;;;14.75;87.01;101715.66;4948266;28;19962;-62
2022/09/11 01:20:45;;;;;;;;;;;;;;;14.74;86.89;101711.25;4944547;28;20390;-62
2022/09/11 01:23:11;;;;;;;;;;;;;;;14.74;86.80;101711.25;4950304;29;19918;-62
2022/09/11 01:25:57;;;;;;;;;;;;;;;14.73;86.86;101714.72;4951870;28;20318;-62
2022/09/11 01:28:24;;;;;;;;;;;;;;;14.72;86.82;101713.84;4954457;28;19910;-62
2022/09/11 01:30:54;;;;;;;;;;;;;;;14.71;86.81;101713.81;4958653;28;20393;-62
2022/09/11 01:33:37;;;;;;;;;;;;;;;14.70;86.97;101719.91;4950251;28;19993;-62
2022/09/11 01:36:05;;;;;;;;;;;;;;;14.68;86.77;101711.13;4947571;28;19906;-62
2022/09/11 01:38:38;;;;;;;;;;;;;;;14.66;86.89;101715.47;4952765;28;19922;-62
2022/09/11 01:41:06;;;;;;;;;;;;;;;14.65;86.46;101718.94;4953711;28;19921;-62
2022/09/11 01:43:34;;;;;;;;;;;;;;;14.63;86.52;101725.88;4953042;28;19914;-61
2022/09/11 01:46:01;;;;;;;;;;;;;;;14.60;86.81;101730.19;4963300;28;19909;-62
2022/09/11 01:48:31;;;;;;;;;;;;;;;14.58;86.62;101726.66;4957516;28;19968;-62
2022/09/11 01:50:57;;;;;;;;;;;;;;;14.57;86.69;101727.50;4960469;28;20013;-61
2022/09/11 01:53:26;;;;;;;;;;;;;;;14.54;86.68;101718.66;4952409;28;20290;-62
2022/09/11 01:55:57;;;;;;;;;;;;;;;14.56;86.78;101730.09;4949224;28;20386;-62
2022/09/11 01:58:27;;;;;;;;;;;;;;;14.52;86.70;101723.88;4956157;28;19930;-62
2022/09/11 02:00:55;;;;;;;;;;;;;;;14.53;86.64;101727.41;4951998;28;19953;-62
2022/09/11 02:03:25;;;;;;;;;;;;;;;14.51;86.52;101726.47;4958853;28;20012;-62
2022/09/11 02:05:56;;;;;;;;;;;;;;;14.50;86.77;101727.34;4970883;28;19918;-62
2022/09/11 02:08:27;;;;;;;;;;;;;;;14.48;86.57;101718.53;4952646;28;20413;-62
2022/09/11 02:10:54;;;;;;;;;;;;;;;14.46;86.29;101730.75;4961940;28;19918;-62
2022/09/11 02:13:22;;;;;;;;;;;;;;;14.45;86.52;101727.22;4950120;28;20006;-62
2022/09/11 02:15:54;;;;;;;;;;;;;;;14.44;86.54;101728.97;4959019;28;19965;-62
2022/09/11 02:18:33;;;;;;;;;;;;;;;14.43;86.47;101727.19;4935853;29;19974;-67
2022/09/11 02:20:58;;;;;;;;;;;;;;;14.42;86.40;101729.78;4953773;28;19949;-67
2022/09/11 02:23:23;;;;;;;;;;;;;;;14.41;86.46;101730.63;4949306;28;20433;-67
2022/09/11 02:25:49;;;;;;;;;;;;;;;14.38;86.32;101736.72;4952332;29;19922;-67
2022/09/11 02:28:15;;;;;;;;;;;;;;;14.38;86.46;101738.44;4949207;28;19930;-67
2022/09/11 02:30:41;;;;;;;;;;;;;;;14.36;86.46;101738.41;4956367;28;19918;-67
2022/09/11 02:33:25;;;;;;;;;;;;;;;14.36;86.41;101737.53;4954554;28;20269;-67
2022/09/11 02:35:51;;;;;;;;;;;;;;;14.33;86.30;101735.72;4950989;28;19914;-67
2022/09/11 02:38:32;;;;;;;;;;;;;;;14.32;86.40;101736.56;4952249;28;19925;-67
2022/09/11 02:41:08;;;;;;;;;;;;;;;14.31;86.23;101737.44;4947756;28;19922;-67
2022/09/11 02:43:45;;;;;;;;;;;;;;;14.29;86.22;101736.47;4945749;28;19914;-67
2022/09/11 02:46:33;;;;;;;;;;;;;;;14.29;86.47;101741.72;4952573;28;20301;-67
2022/09/11 02:49:07;;;;;;;;;;;;;;;14.25;86.44;101740.78;4933647;29;19927;-61
2022/09/11 02:51:54;;;;;;;;;;;;;;;14.26;86.12;101741.66;4953503;28;19954;-62
2022/09/11 02:54:19;;;;;;;;;;;;;;;14.24;86.19;101741.63;4948187;28;20393;-62
2022/09/11 02:57:04;;;;;;;;;;;;;;;14.22;86.25;101742.44;4951723;28;20008;-61
2022/09/11 02:59:32;;;;;;;;;;;;;;;14.21;86.09;101745.94;4948492;29;19914;-62
2022/09/11 03:02:00;;;;;;;;;;;;;;;14.20;86.16;101752.88;4940295;28;19993;-62
2022/09/11 03:04:26;;;;;;;;;;;;;;;14.18;86.42;101751.06;4956454;28;19910;-62
2022/09/11 03:06:52;;;;;;;;;;;;;;;14.17;86.16;101746.72;4958757;28;19937;-62
2022/09/11 03:09:18;;;;;;;;;;;;;;;14.17;86.30;101757.19;4953470;28;19938;-62
2022/09/11 03:11:44;;;;;;;;;;;;;;;14.16;86.32;101758.03;4951456;28;20409;-62
2022/09/11 03:14:09;;;;;;;;;;;;;;;14.13;86.16;101755.34;4954122;28;19917;-62
2022/09/11 03:16:35;;;;;;;;;;;;;;;14.12;86.28;101757.09;4960196;28;19910;-62
2022/09/11 03:19:01;;;;;;;;;;;;;;;14.11;86.21;101750.06;4949346;28;19926;-61
2022/09/11 03:21:26;;;;;;;;;;;;;;;14.08;86.03;101750.88;4949493;28;21782;-62
2022/09/11 03:23:51;;;;;;;;;;;;;;;14.06;85.96;101752.59;4963058;28;20063;-62
2022/09/11 03:26:16;;;;;;;;;;;;;;;14.04;86.07;101751.66;4957751;28;19918;-62
2022/09/11 03:28:43;;;;;;;;;;;;;;;14.02;86.11;101748.13;4950123;28;20426;-62
2022/09/11 03:31:08;;;;;;;;;;;;;;;14.01;86.01;101751.56;4949715;28;19918;-62
2022/09/11 03:33:33;;;;;;;;;;;;;;;13.99;86.06;101757.63;4949135;28;19915;-62
2022/09/11 03:35:59;;;;;;;;;;;;;;;13.98;86.01;101756.75;4946013;28;19915;-62
2022/09/11 03:38:24;;;;;;;;;;;;;;;13.96;86.02;101752.31;4959696;28;19925;-62
2022/09/11 03:40:49;;;;;;;;;;;;;;;13.94;86.11;101756.63;4963699;28;20055;-62
2022/09/11 03:43:18;;;;;;;;;;;;;;;13.91;86.17;101758.31;4954225;28;19914;-62
2022/09/11 03:45:43;;;;;;;;;;;;;;;13.90;86.33;101761.81;4964827;28;19923;-62
2022/09/11 03:48:09;;;;;;;;;;;;;;;13.90;86.07;101771.38;4961657;28;20282;-62
2022/09/11 03:50:34;;;;;;;;;;;;;;;13.88;86.51;101760.88;4955191;28;20404;-62
2022/09/11 03:52:59;;;;;;;;;;;;;;;13.88;86.41;101768.72;4953777;28;20389;-62
2022/09/11 03:55:24;;;;;;;;;;;;;;;13.87;86.64;101758.22;4950095;28;20382;-62
2022/09/11 03:57:50;;;;;;;;;;;;;;;13.87;86.75;101766.06;4950954;29;19915;-62
2022/09/11 04:00:15;;;;;;;;;;;;;;;13.88;86.89;101770.47;4950044;29;20660;-62
2022/09/11 04:02:41;;;;;;;;;;;;;;;13.86;86.87;101767.81;4953005;28;20013;-62
2022/09/11 04:05:06;;;;;;;;;;;;;;;13.88;86.90;101758.25;4948029;28;20528;-62
2022/09/11 04:07:33;;;;;;;;;;;;;;;13.89;86.69;101764.41;4950537;28;19922;-62
2022/09/11 04:09:58;;;;;;;;;;;;;;;13.88;87.17;101760.00;4954266;29;19914;-62
2022/09/11 04:12:24;;;;;;;;;;;;;;;13.86;87.28;101757.34;4945991;28;19973;-62
2022/09/11 04:14:49;;;;;;;;;;;;;;;13.86;87.34;101769.53;4947397;29;19915;-62
2022/09/11 04:17:15;;;;;;;;;;;;;;;13.86;87.27;101764.28;4939326;29;19923;-62
2022/09/11 04:19:40;;;;;;;;;;;;;;;13.85;87.33;101766.03;4940040;29;20532;-62
2022/09/11 04:22:05;;;;;;;;;;;;;;;13.85;87.46;101758.19;4934068;29;20378;-62
2022/09/11 04:24:30;;;;;;;;;;;;;;;13.83;87.33;101759.88;4934342;29;19922;-62
2022/09/11 04:26:57;;;;;;;;;;;;;;;13.80;87.43;101759.81;4944388;29;19918;-62
2022/09/11 04:29:23;;;;;;;;;;;;;;;13.77;87.52;101757.09;4926675;29;19938;-62
2022/09/11 04:31:48;;;;;;;;;;;;;;;13.76;87.34;101763.19;4932513;29;20275;-62
2022/09/11 04:34:13;;;;;;;;;;;;;;;13.75;87.51;101753.56;4932537;28;20405;-62
2022/09/11 04:36:38;;;;;;;;;;;;;;;13.74;87.36;101760.53;4931080;29;20420;-63
2022/09/11 04:39:03;;;;;;;;;;;;;;;13.72;87.40;101767.47;4933017;29;19949;-62
2022/09/11 04:41:29;;;;;;;;;;;;;;;13.69;87.29;101767.38;4937716;29;19914;-62
2022/09/11 04:43:55;;;;;;;;;;;;;;;13.65;87.21;101770.75;4932998;29;19919;-62
2022/09/11 04:46:20;;;;;;;;;;;;;;;13.63;87.25;101767.22;4935962;29;19997;-62
2022/09/11 04:48:46;;;;;;;;;;;;;;;13.61;87.29;101774.16;4932413;29;20010;-62
2022/09/11 04:51:19;;;;;;;;;;;;;;;13.60;87.22;101772.41;4947192;29;20672;-62
2022/09/11 04:53:44;;;;;;;;;;;;;;;13.57;87.16;101772.31;4939048;29;20011;-62
2022/09/11 04:56:12;;;;;;;;;;;;;;;13.55;87.15;101780.09;4941566;29;20005;-62
2022/09/11 04:58:37;;;;;;;;;;;;;;;13.52;87.19;101774.78;4938254;29;19914;-62
2022/09/11 05:01:10;;;;;;;;;;;;;;;13.52;87.17;101779.16;4938486;29;19921;-62
2022/09/11 05:03:35;;;;;;;;;;;;;;;13.48;87.22;101770.31;4941778;29;19914;-64
2022/09/11 05:06:07;;;;;;;;;;;;;;;13.48;87.20;101775.56;4942587;28;19922;-62
2022/09/11 05:08:33;;;;;;;;;;;;;;;13.46;87.31;101777.25;4935788;29;19922;-62
2022/09/11 05:10:59;;;;;;;;;;;;;;;13.44;87.19;101773.72;4935609;29;19919;-62
2022/09/11 05:13:24;;;;;;;;;;;;;;;13.42;87.15;101777.13;4956843;28;19922;-62
2022/09/11 05:15:49;;;;;;;;;;;;;;;13.43;87.21;101784.16;4934681;28;19925;-62
2022/09/11 05:18:15;;;;;;;;;;;;;;;13.41;87.02;101791.06;4949428;28;19931;-62
2022/09/11 05:20:40;;;;;;;;;;;;;;;13.38;86.99;101798.00;4958467;28;19964;-62
2022/09/11 05:23:06;;;;;;;;;;;;;;;13.37;87.02;101800.59;4954641;28;19921;-62
2022/09/11 05:25:31;;;;;;;;;;;;;;;13.35;87.07;101803.16;4952746;29;20410;-62
2022/09/11 05:27:56;;;;;;;;;;;;;;;13.34;86.98;101811.84;4949554;29;19918;-67
2022/09/11 05:30:21;;;;;;;;;;;;;;;13.33;86.99;101809.16;4952960;28;19918;-67
2022/09/11 05:32:53;;;;;;;;;;;;;;;13.31;86.95;101814.34;4961661;28;20313;-67
2022/09/11 05:35:19;;;;;;;;;;;;;;;13.30;86.89;101828.28;4950873;28;19926;-67
2022/09/11 05:37:45;;;;;;;;;;;;;;;13.27;86.86;101822.94;4955163;28;19915;-66
2022/09/11 05:40:11;;;;;;;;;;;;;;;13.24;86.84;101833.34;4951515;28;20341;-67
2022/09/11 05:42:37;;;;;;;;;;;;;;;13.21;86.80;101831.50;4953171;28;20008;-67
2022/09/11 05:45:02;;;;;;;;;;;;;;;13.21;86.95;101847.22;4949672;28;19964;-67
2022/09/11 05:47:27;;;;;;;;;;;;;;;13.19;86.83;101845.41;4948913;29;19914;-67
2022/09/11 05:49:53;;;;;;;;;;;;;;;13.18;86.85;101843.66;4952897;28;19914;-66
2022/09/11 05:52:18;;;;;;;;;;;;;;;13.16;86.91;101845.31;4954743;28;19925;-67
2022/09/11 05:54:43;;;;;;;;;;;;;;;13.14;86.99;101840.03;4949789;28;19936;-67
2022/09/11 05:57:08;;;;;;;;;;;;;;;13.13;87.06;101846.09;4949423;28;20225;-67
2022/09/11 05:59:33;;;;;;;;;;;;;;;13.14;87.18;101849.63;4950541;28;19997;-67
2022/09/11 06:01:58;;;;;;;;;;;;;;;13.13;87.25;101848.72;4957355;28;19930;-67
2022/09/11 06:04:24;;;;;;;;;;;;;;;13.13;87.29;101853.06;4951213;29;20015;-67
2022/09/11 06:06:49;;;;;;;;;;;;;;;13.13;87.58;101863.53;4950403;28;20486;-67
2022/09/11 06:09:14;;;;;;;;;;;;;;;13.12;87.57;101867.00;4958605;28;19914;-67
2022/09/11 06:11:39;;;;;;;;;;;;;;;13.11;87.74;101865.25;4953256;28;19929;-67
2022/09/11 06:14:05;;;;;;;;;;;;;;;13.10;87.67;101868.69;4955319;28;20302;-67
2022/09/11 06:16:30;;;;;;;;;;;;;;;13.10;87.94;101868.69;4952618;28;20283;-66
2022/09/11 06:18:56;;;;;;;;;;;;;;;13.12;87.92;101867.91;4954857;28;19956;-67
2022/09/11 06:21:22;;;;;;;;;;;;;;;13.11;87.93;101871.34;4956836;28;19914;-67
2022/09/11 06:23:48;;;;;;;;;;;;;;;13.13;88.11;101868.78;4950106;29;19922;-67
2022/09/11 06:26:15;;;;;;;;;;;;;;;13.13;88.09;101882.72;4952053;29;19929;-67
2022/09/11 06:28:40;;;;;;;;;;;;;;;13.14;88.15;101879.28;4953340;28;20013;-67
2022/09/11 06:31:07;;;;;;;;;;;;;;;13.17;88.29;101882.00;4947116;28;20021;-67
2022/09/11 06:33:36;;;;;;;;;;;;;;;13.18;88.37;101882.91;4951837;28;20580;-65
2022/09/11 06:36:03;;;;;;;;;;;;;;;13.20;88.50;101889.06;4952073;28;19921;-65
2022/09/11 06:38:28;;;;;;;;;;;;;;;13.20;88.60;101891.66;4948484;28;19980;-68
2022/09/11 06:40:53;;;;;;;;;;;;;;;13.21;88.66;101894.31;4951188;28;20374;-67
2022/09/11 06:43:19;;;;;;;;;;;;;;;13.23;88.83;101899.59;4960035;28;19918;-67
2022/09/11 06:45:47;;;;;;;;;;;;;;;13.24;89.06;101898.78;4948241;28;20410;-66
2022/09/11 06:48:12;;;;;;;;;;;;;;;13.22;89.21;101898.72;4948565;28;19921;-66
2022/09/11 06:50:39;;;;;;;;;;;;;;;13.23;89.17;101897.00;4962769;28;20005;-66
2022/09/11 06:53:05;;;;;;;;;;;;;;;13.24;89.26;101909.25;4948306;28;19918;-66
2022/09/11 06:55:30;;;;;;;;;;;;;;;13.26;89.40;101899.69;4950150;28;19977;-66
2022/09/11 06:57:55;;;;;;;;;;;;;;;13.28;89.47;101908.50;4950504;28;19922;-66
2022/09/11 07:00:21;;;;;;;;;;;;;;;13.29;89.88;101905.00;4957250;28;20461;-66
2022/09/11 07:02:46;;;;;;;;;;;;;;;13.30;89.72;101909.41;4949689;28;19978;-67
2022/09/11 07:05:12;;;;;;;;;;;;;;;13.32;89.63;101905.09;4949738;28;19918;-66
2022/09/11 07:07:38;;;;;;;;;;;;;;;13.34;89.78;101906.09;4950611;29;20101;-66
2022/09/11 07:10:03;;;;;;;;;;;;;;;13.36;89.85;101903.50;4949983;28;19920;-67
2022/09/11 07:12:29;;;;;;;;;;;;;;;13.38;90.02;101913.19;4949288;28;20005;-67
2022/09/11 07:14:55;;;;;;;;;;;;;;;13.39;90.38;101909.69;4948438;28;19973;-67
2022/09/11 07:17:20;;;;;;;;;;;;;;;13.42;90.41;101900.19;4930849;28;19914;-67
2022/09/11 07:19:45;;;;;;;;;;;;;;;13.44;90.49;101902.00;4949155;28;19906;-66
2022/09/11 07:22:10;;;;;;;;;;;;;;;13.46;90.66;101900.31;4961358;28;20427;-66
2022/09/11 07:24:35;;;;;;;;;;;;;;;13.50;90.75;101893.44;4949308;28;19922;-67
2022/09/11 07:27:01;;;;;;;;;;;;;;;13.54;91.01;101897.91;4944407;28;19953;-62
2022/09/11 07:29:26;;;;;;;;;;;;;;;13.57;91.12;101900.63;4952684;28;19952;-61
2022/09/11 07:31:54;;;;;;;;;;;;;;;13.59;91.31;101900.66;4949506;28;19922;-61
2022/09/11 07:34:19;;;;;;;;;;;;;;;13.62;91.47;101906.88;4947641;28;19950;-62
2022/09/11 07:36:45;;;;;;;;;;;;;;;13.64;91.61;101901.66;4947667;29;19973;-62
2022/09/11 07:39:10;;;;;;;;;;;;;;;13.67;91.89;101910.53;4950109;29;19922;-62
2022/09/11 07:41:35;;;;;;;;;;;;;;;13.69;91.72;101906.19;4951782;28;19918;-62
2022/09/11 07:44:02;;;;;;;;;;;;;;;13.72;92.48;101914.13;4953367;29;19918;-62
2022/09/11 07:46:29;;;;;;;;;;;;;;;13.74;92.34;101902.00;4952746;28;19914;-62
2022/09/11 07:48:55;;;;;;;;;;;;;;;13.78;92.40;101907.31;4954715;29;19914;-62
2022/09/11 07:51:20;;;;;;;;;;;;;;;13.81;92.17;101900.41;4953743;28;19926;-62
2022/09/11 07:53:47;;;;;;;;;;;;;;;13.86;92.70;101903.13;4951163;28;20009;-62
2022/09/11 07:56:13;;;;;;;;;;;;;;;13.91;92.78;101909.41;4952995;28;19925;-62
2022/09/11 07:58:39;;;;;;;;;;;;;;;13.94;92.76;101904.25;4953704;29;20374;-62
2022/09/11 08:01:06;;;;;;;;;;;;;;;13.98;92.62;101913.97;4953067;28;19922;-62
2022/09/11 08:03:32;;;;;;;;;;;;;;;14.02;92.77;101910.59;4951755;28;19933;-62
2022/09/11 08:05:58;;;;;;;;;;;;;;;14.05;93.28;101915.91;4939547;28;19920;-62
2022/09/11 08:08:24;;;;;;;;;;;;;;;14.09;93.43;101920.38;4944161;28;20050;-62
2022/09/11 08:10:49;;;;;;;;;;;;;;;14.15;93.31;101924.00;4945825;28;20390;-62
2022/09/11 08:13:15;;;;;;;;;;;;;;;14.15;93.65;101919.66;4944573;28;19927;-62
2022/09/11 08:15:47;;;;;;;;;;;;;;;14.21;93.50;101934.66;4948086;28;19930;-62
2022/09/11 08:18:12;;;;;;;;;;;;;;;14.24;93.74;101930.38;4953423;28;20510;-62
2022/09/11 08:20:38;;;;;;;;;;;;;;;14.30;93.52;101934.88;4944275;28;20109;-62
2022/09/11 08:23:03;;;;;;;;;;;;;;;14.34;93.61;101925.34;4951459;28;19922;-62
2022/09/11 08:25:28;;;;;;;;;;;;;;;14.39;93.74;101924.63;4946764;28;19915;-62
2022/09/11 08:27:53;;;;;;;;;;;;;;;14.43;94.06;101934.34;4952343;28;19961;-62
2022/09/11 08:30:19;;;;;;;;;;;;;;;14.47;94.09;101937.94;4947993;28;19949;-62
2022/09/11 08:32:44;;;;;;;;;;;;;;;14.51;94.06;101941.53;4927626;29;19926;-62
2022/09/11 08:35:09;;;;;;;;;;;;;;;14.55;94.01;101941.63;4944484;28;19994;-62
2022/09/11 08:37:34;;;;;;;;;;;;;;;14.58;93.88;101940.81;4946136;28;19973;-62
2022/09/11 08:40:00;;;;;;;;;;;;;;;14.62;93.78;101952.34;4944185;28;19921;-60
2022/09/11 08:42:27;;;;;;;;;;;;;;;14.67;94.23;101948.97;4950652;28;19914;-60
2022/09/11 08:44:54;;;;;;;;;;;;;;;14.72;94.24;101947.34;4954228;28;19922;-60
2022/09/11 08:47:23;;;;;;;;;;;;;;;14.78;94.31;101954.47;4951770;28;19921;-60
2022/09/11 08:49:54;;;;;;;;;;;;;;;14.81;94.41;101944.03;4953097;29;19914;-60
2022/09/11 08:52:19;;;;;;;;;;;;;;;14.87;94.32;101953.81;4955130;28;19922;-60
2022/09/11 08:54:46;;;;;;;;;;;;;;;14.90;94.40;101952.16;4961053;28;20293;-60
2022/09/11 08:57:30;;;;;;;;;;;;;;;14.94;94.52;101940.84;4953452;29;19921;-63
2022/09/11 09:00:01;;;;;;;;;;;;;;;15.00;94.49;101950.59;4952355;29;20072;-63
2022/09/11 09:02:26;;;;;;;;;;;;;;;15.05;94.56;101949.00;4952174;29;20174;-63
2022/09/11 09:05:00;;;;;;;;;;;;;;;15.10;94.59;101949.97;4946893;28;20074;-63
2022/09/11 09:07:45;;;;;;;;;;;;;;;15.18;94.66;101949.25;4955789;28;19918;-63
2022/09/11 09:10:29;;;;;;;;;;;;;;;15.23;94.75;101948.50;4963009;28;20049;-63
2022/09/11 09:13:01;;;;;;;;;;;;;;;15.33;nan;101954.84;4967340;28;19965;-63
2022/09/11 09:15:37;;;;;;;;;;;;;;;15.42;95.01;101952.41;4960872;28;19921;-63
2022/09/11 09:18:07;;;;;;;;;;;;;;;15.52;96.08;101960.50;4964284;28;20397;-63
2022/09/11 09:20:35;;;;;;;;;;;;;;;15.60;95.77;101962.44;4956151;28;19914;-63
2022/09/11 09:23:18;;;;;;;;;;;;;;;15.70;96.13;101959.97;4953536;28;19915;-63
2022/09/11 09:25:44;;;;;;;;;;;;;;;15.82;95.85;101963.78;4953270;28;19915;-63
2022/09/11 09:28:18;;;;;;;;;;;;;;;15.93;95.21;101969.28;4951336;28;19918;-63
2022/09/11 09:30:49;;;;;;;;;;;;;;;16.04;95.83;101971.22;4952645;29;19906;-63
2022/09/11 09:33:25;;;;;;;;;;;;;;;16.13;96.04;101964.41;4964905;28;20386;-63
2022/09/11 09:35:53;;;;;;;;;;;;;;;16.27;95.85;101972.53;4950721;29;19914;-64
2022/09/11 09:38:20;;;;;;;;;;;;;;;16.38;95.22;101967.47;4952943;29;19914;-63
2022/09/11 09:41:04;;;;;;;;;;;;;;;16.48;95.47;101968.50;4952809;29;19914;-62
2022/09/11 09:43:48;;;;;;;;;;;;;;;16.60;95.63;101973.09;4951821;29;19914;-63
2022/09/11 09:46:22;;;;;;;;;;;;;;;16.72;95.18;101964.53;4952691;29;20792;-63
2022/09/11 09:48:48;;;;;;;;;;;;;;;16.84;95.38;101962.97;4953156;29;19918;-63
2022/09/11 09:51:13;;;;;;;;;;;;;;;16.94;94.52;101971.03;4951294;28;19940;-63
2022/09/11 09:53:41;;;;;;;;;;;;;;;17.05;94.70;101964.19;4952899;29;20338;-63
2022/09/11 09:56:06;;;;;;;;;;;;;;;17.17;94.96;101966.09;4953262;29;20093;-63
2022/09/11 09:58:39;;;;;;;;;;;;;;;17.28;94.65;101969.78;4953013;29;20442;-63
2022/09/11 10:01:25;;;;;;;;;;;;;;;17.38;94.14;101961.13;4952745;29;19918;-63
2022/09/11 10:04:20;;;;;;;;;;;;;;;17.50;93.79;101965.69;4934657;28;19996;-62
2022/09/11 10:06:46;;;;;;;;;;;;;;;17.65;93.74;101958.84;4949322;28;19918;-62
2022/09/11 10:09:22;;;;;;;;;;;;;;;17.76;93.15;101962.47;4954481;28;19917;-62
2022/09/11 10:11:55;;;;;;;;;;;;;;;17.89;92.56;101969.66;4932334;29;19993;-62
2022/09/11 10:14:21;;;;;;;;;;;;;;;17.98;92.01;101971.53;4951449;29;19922;-63
2022/09/11 10:16:48;;;;;;;;;;;;;;;18.03;91.96;101972.50;4961381;28;19921;-63
2022/09/11 10:19:23;;;;;;;;;;;;;;;18.10;91.81;101973.44;4960005;28;20388;-63
2022/09/11 10:21:48;;;;;;;;;;;;;;;18.16;91.63;101978.78;4951685;29;19965;-62
2022/09/11 10:24:16;;;;;;;;;;;;;;;18.18;91.40;101965.63;4949701;28;19918;-62
2022/09/11 10:26:48;;;;;;;;;;;;;;;18.19;91.24;101973.53;4945227;28;20484;-62
2022/09/11 10:29:16;;;;;;;;;;;;;;;18.20;91.17;101967.38;4949469;29;20068;-62
2022/09/11 10:31:48;;;;;;;;;;;;;;;18.22;90.89;101970.94;4950662;28;20378;-62
2022/09/11 10:34:14;;;;;;;;;;;;;;;18.23;90.35;101962.16;4955114;28;19924;-62
2022/09/11 10:36:50;;;;;;;;;;;;;;;18.30;91.22;101964.84;4950658;29;20001;-60
2022/09/11 10:39:18;;;;;;;;;;;;;;;18.36;90.86;101970.16;4951936;29;19906;-60
2022/09/11 10:41:47;;;;;;;;;;;;;;;18.43;90.77;101961.44;4952182;29;20371;-60
2022/09/11 10:44:14;;;;;;;;;;;;;;;18.49;90.66;101964.13;4947910;28;20293;-60
2022/09/11 10:46:41;;;;;;;;;;;;;;;18.49;89.35;101958.84;4952968;28;19950;-60
2022/09/11 10:49:07;;;;;;;;;;;;;;;18.50;88.98;101963.25;4950654;28;19914;-60
2022/09/11 10:51:34;;;;;;;;;;;;;;;18.51;88.68;101962.41;4951828;29;19910;-60
2022/09/11 10:54:07;;;;;;;;;;;;;;;18.53;89.15;101973.84;4951897;29;19947;-60
2022/09/11 10:56:36;;;;;;;;;;;;;;;18.55;88.42;101960.66;4937686;28;19918;-60
2022/09/11 10:59:04;;;;;;;;;;;;;;;18.55;88.27;101966.84;4948269;28;19907;-60
2022/09/11 11:01:29;;;;;;;;;;;;;;;18.56;88.22;101968.59;4949259;28;19918;-60
2022/09/11 11:03:55;;;;;;;;;;;;;;;18.59;88.17;101959.81;4949986;28;19914;-60
2022/09/11 11:06:38;;;;;;;;;;;;;;;18.62;87.11;101961.59;4951358;28;20352;-60
2022/09/11 11:09:04;;;;;;;;;;;;;;;18.67;87.35;101963.41;4948462;28;20409;-60
2022/09/11 11:11:49;;;;;;;;;;;;;;;18.75;87.93;101963.47;4949332;28;19915;-59
2022/09/11 11:14:31;;;;;;;;;;;;;;;18.81;87.12;101966.13;4932461;29;20275;-60
2022/09/11 11:17:15;;;;;;;;;;;;;;;18.87;86.37;101962.69;4949761;28;20005;-59
2022/09/11 11:19:50;;;;;;;;;;;;;;;18.94;86.45;101961.88;4949502;28;19914;-60
2022/09/11 11:22:35;;;;;;;;;;;;;;;19.01;86.53;101958.41;4948492;28;20259;-60
2022/09/11 11:25:00;;;;;;;;;;;;;;;19.10;86.91;101957.56;4949445;28;20396;-60
2022/09/11 11:27:29;;;;;;;;;;;;;;;19.18;86.07;101966.44;4949551;28;19918;-60
2022/09/11 11:30:01;;;;;;;;;;;;;;;19.26;86.02;101956.81;4951113;28;19914;-60
2022/09/11 11:32:55;;;;;;;;;;;;;;;19.33;84.47;101956.81;4948036;28;20342;-60
2022/09/11 11:35:20;;;;;;;;;;;;;;;19.39;84.00;101959.50;4947656;28;20378;-60
2022/09/11 11:37:46;;;;;;;;;;;;;;;19.46;83.98;101961.28;4948631;28;19914;-63
2022/09/11 11:40:26;;;;;;;;;;;;;;;19.51;83.45;101953.38;4954138;28;20006;-63
2022/09/11 11:42:54;;;;;;;;;;;;;;;19.56;84.71;101952.50;4943940;28;20127;-63
2022/09/11 11:45:20;;;;;;;;;;;;;;;19.62;82.00;101952.56;4952007;29;19906;-63
2022/09/11 11:47:46;;;;;;;;;;;;;;;19.67;82.09;101949.03;4950875;28;19918;-63
2022/09/11 11:50:11;;;;;;;;;;;;;;;19.74;82.85;101957.00;4967620;28;20329;-63
2022/09/11 11:52:55;;;;;;;;;;;;;;;19.82;82.17;101946.47;4952382;28;19922;-63
2022/09/11 11:55:23;;;;;;;;;;;;;;;19.93;82.12;101943.88;4950003;29;19966;-63
2022/09/11 11:57:56;;;;;;;;;;;;;;;20.00;82.69;101942.97;4951099;28;19915;-63
2022/09/11 12:00:21;;;;;;;;;;;;;;;20.08;81.89;101948.31;4950140;29;19921;-63
2022/09/11 12:03:08;;;;;;;;;;;;;;;20.15;81.13;101944.78;4951382;29;19910;-63
2022/09/11 12:05:34;;;;;;;;;;;;;;;20.23;80.16;101936.84;4952004;29;20382;-63
2022/09/11 12:08:00;;;;;;;;;;;;;;;20.29;79.81;101936.84;4950892;28;19964;-64
2022/09/11 12:10:25;;;;;;;;;;;;;;;20.33;80.37;101928.94;4971185;28;20333;-63
2022/09/11 12:12:54;;;;;;;;;;;;;;;20.40;80.36;101927.16;4971016;28;19968;-63
2022/09/11 12:15:23;;;;;;;;;;;;;;;20.47;79.19;101933.34;4962626;28;19922;-63
2022/09/11 12:17:59;;;;;;;;;;;;;;;20.52;78.80;101934.19;4952063;29;19925;-64
2022/09/11 12:20:30;;;;;;;;;;;;;;;20.57;75.93;101927.16;4951778;29;20263;-63
2022/09/11 12:22:57;;;;;;;;;;;;;;;20.64;76.85;101934.22;4950804;28;19965;-63
2022/09/11 12:25:45;;;;;;;;;;;;;;;20.72;78.99;101928.94;4957998;28;19918;-63
2022/09/11 12:28:19;;;;;;;;;;;;;;;20.80;78.31;101926.28;4964066;28;19921;-63
2022/09/11 12:30:55;;;;;;;;;;;;;;;20.85;77.64;101916.56;4974523;28;19910;-64
2022/09/11 12:33:38;;;;;;;;;;;;;;;20.89;77.52;101923.59;4974154;28;19921;-63
2022/09/11 12:36:06;;;;;;;;;;;;;;;20.94;78.01;101923.59;4974294;28;19949;-63
2022/09/11 12:38:54;;;;;;;;;;;;;;;20.98;77.79;101918.28;4963005;28;19922;-63
2022/09/11 12:41:28;;;;;;;;;;;;;;;21.05;78.01;101916.50;4954087;28;19933;-63
2022/09/11 12:43:54;;;;;;;;;;;;;;;21.09;77.48;101920.91;4974191;28;19910;-63